createdAt,value
2023-03-26T00:01:39.357Z,70.17
2023-03-26T00:04:07.627Z,70.60
2023-03-26T00:06:39.635Z,69.46
2023-03-26T00:09:09.824Z,70.50
2023-03-26T00:11:37.061Z,70.13
2023-03-26T00:14:05.743Z,71.81
2023-03-26T00:16:33.683Z,73.00
2023-03-26T00:19:01.879Z,73.54
2023-03-26T00:21:30.662Z,74.50
2023-03-26T00:24:00.313Z,75.94
2023-03-26T00:26:29.736Z,77.05
2023-03-26T00:28:58.316Z,77.92
2023-03-26T00:31:25.509Z,78.45
2023-03-26T00:33:56.118Z,78.38
2023-03-26T00:36:28.121Z,78.64
2023-03-26T00:38:56.014Z,78.54
2023-03-26T00:41:31.298Z,77.84
2023-03-26T00:44:00.177Z,77.48
2023-03-26T00:46:29.690Z,78.30
2023-03-26T00:49:00.158Z,78.38
2023-03-26T00:51:28.789Z,79.09
2023-03-26T00:53:56.835Z,79.42
2023-03-26T00:56:24.237Z,79.22
2023-03-26T00:58:51.281Z,78.18
2023-03-26T01:01:27.931Z,77.06
2023-03-26T01:04:08.823Z,77.32
2023-03-26T01:06:42.355Z,76.40
2023-03-26T01:09:16.178Z,76.83
2023-03-26T01:11:43.694Z,75.96
2023-03-26T01:14:14.757Z,75.77
2023-03-26T01:16:52.705Z,76.26
2023-03-26T01:19:47.585Z,76.82
2023-03-26T01:22:26.244Z,77.51
2023-03-26T01:24:54.228Z,77.49
2023-03-26T01:27:27.018Z,78.13
2023-03-26T01:29:58.998Z,78.38
2023-03-26T01:32:52.873Z,79.15
2023-03-26T01:35:30.718Z,79.01
2023-03-26T01:38:00.710Z,79.71
2023-03-26T01:40:31.993Z,79.94
2023-03-26T01:43:03.972Z,80.10
2023-03-26T01:45:36.745Z,80.32
2023-03-26T01:48:05.277Z,81.00
2023-03-26T01:50:32.474Z,81.13
2023-03-26T01:52:59.705Z,80.85
2023-03-26T01:55:54.008Z,81.17
2023-03-26T01:58:53.279Z,80.70
2023-03-26T02:01:44.856Z,81.14
2023-03-26T02:04:24.055Z,81.36
2023-03-26T02:07:05.868Z,81.15
2023-03-26T02:09:39.475Z,81.07
2023-03-26T02:12:07.191Z,81.64
2023-03-26T02:14:34.541Z,83.35
2023-03-26T02:17:01.578Z,83.07
2023-03-26T02:19:29.978Z,81.73
2023-03-26T02:21:59.998Z,80.66
2023-03-26T02:24:29.269Z,80.30
2023-03-26T02:27:02.328Z,79.21
2023-03-26T02:29:29.869Z,78.17
2023-03-26T02:31:57.439Z,76.91
2023-03-26T02:34:24.516Z,77.16
2023-03-26T02:36:53.658Z,75.94
2023-03-26T02:39:21.066Z,74.87
2023-03-26T02:42:02.735Z,74.53
2023-03-26T02:44:32.635Z,74.09
2023-03-26T02:46:59.750Z,74.31
2023-03-26T02:49:41.758Z,73.92
2023-03-26T02:52:09.672Z,74.33
2023-03-26T02:54:37.181Z,74.27
2023-03-26T02:57:07.172Z,75.31
2023-03-26T03:00:09.186Z,75.19
2023-03-26T03:02:38.967Z,75.17
2023-03-26T03:05:26.599Z,75.54
2023-03-26T03:08:14.022Z,75.07
2023-03-26T03:11:14.783Z,75.24
2023-03-26T03:13:45.143Z,75.37
2023-03-26T03:16:15.952Z,75.76
2023-03-26T03:18:43.002Z,75.45
2023-03-26T03:21:10.523Z,75.47
2023-03-26T03:23:37.548Z,75.42
2023-03-26T03:26:15.761Z,75.92
2023-03-26T03:28:51.215Z,76.73
2023-03-26T03:31:18.590Z,77.35
2023-03-26T03:33:46.643Z,78.58
2023-03-26T03:36:21.015Z,78.62
2023-03-26T03:39:02.373Z,79.55
2023-03-26T03:41:30.191Z,80.33
2023-03-26T03:43:59.935Z,80.65
2023-03-26T03:46:30.006Z,80.42
2023-03-26T03:48:57.094Z,78.39
2023-03-26T03:51:32.427Z,79.11
2023-03-26T03:54:03.127Z,81.21
2023-03-26T03:57:03.609Z,81.54
2023-03-26T03:59:38.826Z,81.94
2023-03-26T04:02:26.431Z,82.58
2023-03-26T04:04:58.274Z,83.75
2023-03-26T04:07:26.445Z,83.62
2023-03-26T04:10:07.264Z,84.10
2023-03-26T04:12:52.638Z,83.72
2023-03-26T04:15:27.127Z,84.45
2023-03-26T04:17:54.324Z,84.46
2023-03-26T04:20:22.184Z,85.06
2023-03-26T04:22:51.094Z,84.86
2023-03-26T04:25:21.570Z,84.51
2023-03-26T04:27:58.548Z,85.07
2023-03-26T04:31:03.979Z,86.08
2023-03-26T04:33:41.588Z,85.84
2023-03-26T04:36:10.381Z,86.00
2023-03-26T04:38:42.723Z,85.85
2023-03-26T04:41:14.811Z,86.22
2023-03-26T04:43:54.253Z,86.43
2023-03-26T04:46:36.585Z,86.58
2023-03-26T04:49:12.433Z,87.03
2023-03-26T04:51:42.063Z,87.11
2023-03-26T04:54:32.053Z,88.03
2023-03-26T04:57:08.056Z,87.89
2023-03-26T04:59:46.261Z,88.66
2023-03-26T05:02:15.649Z,88.65
2023-03-26T05:04:53.760Z,88.14
2023-03-26T05:07:24.212Z,88.48
2023-03-26T05:09:54.860Z,87.77
2023-03-26T05:12:41.695Z,88.58
2023-03-26T05:15:14.343Z,88.33
2023-03-26T05:17:50.404Z,88.21
2023-03-26T05:20:30.005Z,87.50
2023-03-26T05:22:57.511Z,88.28
2023-03-26T05:25:35.130Z,87.74
2023-03-26T05:28:04.751Z,88.23
2023-03-26T05:30:43.642Z,88.12
2023-03-26T05:33:11.135Z,88.46
2023-03-26T05:36:07.129Z,88.71
2023-03-26T05:38:34.368Z,89.65
2023-03-26T05:41:06.955Z,89.55
2023-03-26T05:43:36.425Z,90.15
2023-03-26T05:46:09.822Z,91.10
2023-03-26T05:48:38.439Z,90.45
2023-03-26T05:51:06.652Z,89.98
2023-03-26T05:53:34.204Z,89.71
2023-03-26T05:56:07.687Z,90.37
2023-03-26T05:58:53.276Z,90.08
2023-03-26T06:01:39.057Z,89.41
2023-03-26T06:04:28.652Z,88.61
2023-03-26T06:07:16.906Z,88.49
2023-03-26T06:09:50.035Z,88.58
2023-03-26T06:12:17.652Z,87.63
2023-03-26T06:14:45.838Z,87.22
2023-03-26T06:17:33.104Z,87.46
2023-03-26T06:20:20.461Z,87.38
2023-03-26T06:22:50.042Z,86.09
2023-03-26T06:25:20.454Z,86.27
2023-03-26T06:28:06.143Z,85.63
2023-03-26T06:30:53.875Z,86.05
2023-03-26T06:33:48.902Z,86.87
2023-03-26T06:36:16.642Z,86.75
2023-03-26T06:38:43.768Z,86.65
2023-03-26T06:41:11.093Z,86.77
2023-03-26T06:44:11.398Z,86.01
2023-03-26T06:46:58.644Z,85.48
2023-03-26T06:49:45.798Z,84.48
2023-03-26T06:52:38.748Z,83.39
2023-03-26T06:55:28.315Z,84.13
2023-03-26T06:58:22.026Z,83.17
2023-03-26T07:01:07.701Z,82.69
2023-03-26T07:03:53.088Z,80.30
2023-03-26T07:06:52.969Z,80.21
2023-03-26T07:09:38.834Z,79.58
2023-03-26T07:12:24.227Z,79.40
2023-03-26T07:14:51.538Z,78.67
2023-03-26T07:17:37.477Z,78.65
2023-03-26T07:20:13.102Z,79.18
2023-03-26T07:22:42.283Z,78.41
2023-03-26T07:25:17.159Z,78.42
2023-03-26T07:27:52.060Z,77.17
2023-03-26T07:30:55.645Z,78.82
2023-03-26T07:33:51.703Z,78.93
2023-03-26T07:36:49.352Z,78.67
2023-03-26T07:40:06.212Z,76.46
2023-03-26T07:43:21.396Z,77.78
2023-03-26T07:46:12.393Z,75.80
2023-03-26T07:48:51.978Z,73.95
2023-03-26T07:51:37.224Z,74.47
2023-03-26T07:54:16.915Z,73.81
2023-03-26T07:57:36.984Z,74.73
2023-03-26T08:00:35.324Z,75.22
2023-03-26T08:03:15.834Z,75.98
2023-03-26T08:06:27.157Z,75.39
2023-03-26T08:09:26.942Z,74.81
2023-03-26T08:12:18.311Z,72.52
2023-03-26T08:14:52.663Z,73.68
2023-03-26T08:17:45.357Z,71.01
2023-03-26T08:20:44.318Z,70.79
2023-03-26T08:23:38.361Z,69.32
2023-03-26T08:27:08.842Z,68.77
2023-03-26T08:29:50.100Z,68.49
2023-03-26T08:32:19.563Z,67.17
2023-03-26T08:34:46.923Z,66.43
2023-03-26T08:37:14.223Z,67.12
2023-03-26T08:39:42.525Z,67.01
2023-03-26T08:42:34.149Z,65.10
2023-03-26T08:45:19.744Z,64.99
2023-03-26T08:48:03.485Z,66.30
2023-03-26T08:51:07.860Z,63.44
2023-03-26T08:54:05.070Z,62.37
2023-03-26T08:56:39.276Z,63.78
2023-03-26T08:59:44.331Z,61.27
2023-03-26T09:02:40.464Z,62.67
2023-03-26T09:05:39.833Z,62.90
2023-03-26T09:08:16.042Z,62.48
2023-03-26T09:10:48.910Z,62.11
2023-03-26T09:13:49.780Z,63.33
2023-03-26T09:16:56.144Z,64.24
2023-03-26T09:19:39.726Z,62.65
2023-03-26T09:22:27.898Z,63.31
2023-03-26T09:24:57.694Z,64.04
2023-03-26T09:28:15.913Z,63.09
2023-03-26T09:31:09.564Z,64.00
2023-03-26T09:34:00.283Z,62.81
2023-03-26T09:36:46.410Z,63.05
2023-03-26T09:39:33.117Z,65.32
2023-03-26T09:42:13.206Z,66.07
2023-03-26T10:17:05.053Z,65.19
2023-03-26T10:19:57.536Z,65.19
2023-03-26T10:22:24.530Z,64.49
2023-03-26T10:25:16.779Z,64.63
2023-03-26T10:27:44.104Z,64.62
2023-03-26T10:30:32.960Z,64.44
2023-03-26T10:33:19.433Z,64.51
2023-03-26T10:35:59.955Z,64.99
2023-03-26T10:38:30.064Z,64.34
2023-03-26T10:41:24.308Z,64.00
2023-03-26T10:44:24.582Z,62.01
2023-03-26T10:47:26.524Z,62.60
2023-03-26T10:50:11.835Z,61.74
2023-03-26T10:52:47.063Z,62.22
2023-03-26T10:55:24.318Z,61.09
2023-03-26T10:57:58.307Z,61.81
2023-03-26T11:00:29.183Z,62.58
2023-03-26T11:03:27.372Z,63.22
2023-03-26T11:06:02.955Z,64.16
2023-03-26T11:08:44.882Z,63.53
2023-03-26T11:11:47.590Z,64.21
2023-03-26T11:14:37.551Z,63.13
2023-03-26T11:17:39.317Z,59.21
2023-03-26T11:20:23.361Z,59.56
2023-03-26T11:23:08.085Z,57.93
2023-03-26T11:25:44.062Z,57.74
2023-03-26T11:29:03.827Z,56.42
2023-03-26T11:31:51.247Z,55.34
2023-03-26T11:34:23.518Z,55.71
2023-03-26T11:36:55.920Z,53.00
2023-03-26T11:39:47.972Z,54.38
2023-03-26T11:42:17.527Z,54.70
2023-03-26T11:45:03.256Z,53.42
2023-03-26T11:47:38.814Z,53.09
2023-03-26T11:50:08.462Z,52.42
2023-03-26T11:52:36.174Z,53.16
2023-03-26T11:55:03.433Z,51.46
2023-03-26T11:57:34.782Z,51.02
2023-03-26T12:00:18.125Z,48.20
2023-03-26T12:02:47.585Z,49.09
2023-03-26T12:05:18.479Z,49.36
2023-03-26T12:07:51.281Z,49.83
2023-03-26T12:10:26.142Z,50.13
2023-03-26T12:12:57.177Z,50.30
2023-03-26T12:15:25.543Z,50.64
2023-03-26T12:17:57.142Z,50.26
2023-03-26T12:20:25.047Z,50.74
2023-03-26T12:22:59.587Z,51.50
2023-03-26T12:25:39.211Z,51.52
2023-03-26T12:28:15.868Z,52.79
2023-03-26T12:30:58.891Z,52.61
2023-03-26T12:33:29.763Z,51.91
2023-03-26T12:36:01.162Z,51.13
2023-03-26T12:38:33.812Z,50.00
2023-03-26T12:43:19.790Z,50.48
2023-03-26T12:44:56.340Z,48.98
2023-03-26T12:47:57.980Z,49.83
2023-03-26T12:50:06.304Z,50.08
2023-03-26T12:52:42.999Z,49.84
2023-03-26T12:55:22.111Z,50.61
2023-03-26T12:58:24.325Z,50.18
2023-03-26T13:00:57.586Z,50.43
2023-03-26T13:03:51.178Z,50.74
2023-03-26T13:06:59.871Z,51.83
2023-03-26T13:09:56.996Z,51.04
2023-03-26T13:12:42.256Z,51.86
2023-03-26T13:15:24.430Z,51.25
2023-03-26T13:18:00.542Z,52.41
2023-03-26T13:20:48.024Z,51.55
2023-03-26T13:23:34.625Z,52.22
2023-03-26T13:26:18.592Z,52.24
2023-03-26T13:29:00.455Z,52.13
2023-03-26T13:31:44.336Z,52.58
2023-03-26T13:34:19.371Z,52.56
2023-03-26T13:36:58.531Z,51.86
2023-03-26T13:39:50.312Z,51.35
2023-03-26T13:42:39.474Z,51.93
2023-03-26T13:45:27.679Z,52.73
2023-03-26T13:47:57.734Z,53.00
2023-03-26T13:50:31.476Z,52.65
2023-03-26T13:53:24.388Z,51.87
2023-03-26T13:55:57.119Z,52.15
2023-03-26T13:58:43.272Z,52.08
2023-03-26T14:01:34.926Z,52.65
2023-03-26T14:04:24.873Z,51.88
2023-03-26T14:07:18.201Z,51.66
2023-03-26T14:10:24.072Z,51.21
2023-03-26T14:12:54.130Z,51.77
2023-03-26T14:15:50.070Z,50.33
2023-03-26T14:18:37.964Z,48.79
2023-03-26T14:22:12.361Z,47.95
2023-03-26T14:24:51.827Z,48.48
2023-03-26T14:27:28.426Z,48.91
2023-03-26T14:30:11.439Z,47.19
2023-03-26T14:49:10.131Z,47.84
2023-03-26T14:52:01.497Z,49.02
2023-03-26T14:54:31.886Z,48.32
2023-03-26T14:57:13.963Z,47.94
2023-03-26T15:00:06.874Z,48.60
2023-03-26T15:03:11.247Z,48.90
2023-03-26T15:06:15.457Z,48.58
2023-03-26T15:09:13.360Z,48.38
2023-03-26T15:11:51.959Z,47.89
2023-03-26T15:14:40.379Z,49.51
2023-03-26T15:17:10.879Z,49.01
2023-03-26T15:20:23.425Z,49.77
2023-03-26T15:23:09.928Z,49.84
2023-03-26T15:25:58.051Z,49.08
2023-03-26T15:28:42.990Z,49.77
2023-03-26T15:31:41.154Z,50.68
2023-03-26T15:34:30.508Z,49.94
2023-03-26T15:38:06.918Z,50.08
2023-03-26T15:40:49.274Z,49.96
2023-03-26T15:43:20.209Z,49.96
2023-03-26T15:45:54.100Z,48.51
2023-03-26T15:48:36.710Z,50.54
2023-03-26T15:51:22.013Z,48.67
2023-03-26T15:54:04.013Z,48.92
2023-03-26T15:56:56.826Z,49.79
2023-03-26T15:59:26.830Z,49.82
2023-03-26T16:02:39.126Z,49.93
2023-03-26T16:05:45.838Z,52.21
2023-03-26T16:08:19.065Z,54.25
2023-03-26T16:10:56.198Z,55.61
2023-03-26T16:13:28.000Z,58.26
2023-03-26T16:15:58.303Z,59.02
2023-03-26T16:18:30.017Z,57.58
2023-03-26T16:21:30.571Z,57.72
2023-03-26T16:24:08.219Z,58.21
2023-03-26T16:26:44.772Z,59.95
2023-03-26T16:29:14.608Z,60.22
2023-03-26T16:32:28.676Z,60.14
2023-03-26T16:35:00.387Z,61.00
2023-03-26T16:37:36.717Z,61.80
2023-03-26T16:40:22.546Z,62.30
2023-03-26T16:43:35.780Z,62.20
2023-03-26T16:46:27.608Z,62.66
2023-03-26T16:49:09.728Z,64.12
2023-03-26T16:51:39.865Z,64.12
2023-03-26T16:54:13.536Z,64.06
2023-03-26T16:56:53.457Z,65.06
2023-03-26T16:59:38.818Z,65.55
2023-03-26T17:02:23.294Z,65.36
2023-03-26T17:04:59.405Z,65.29
2023-03-26T17:07:47.629Z,66.22
2023-03-26T17:10:31.218Z,67.32
2023-03-26T17:13:01.056Z,68.57
2023-03-26T17:15:48.475Z,69.47
2023-03-26T17:19:24.594Z,69.52
2023-03-26T17:22:13.983Z,72.00
2023-03-26T17:24:54.388Z,72.46
2023-03-26T17:28:10.403Z,74.35
2023-03-26T17:30:52.723Z,74.80
2023-03-26T17:33:25.702Z,74.08
2023-03-26T17:36:12.788Z,74.05
2023-03-26T17:38:39.646Z,75.63
2023-03-26T17:41:15.820Z,76.39
2023-03-26T17:43:47.459Z,78.86
2023-03-26T17:46:48.327Z,78.97
2023-03-26T17:49:23.230Z,82.08
2023-03-26T17:52:02.433Z,80.09
2023-03-26T17:54:44.391Z,79.85
2023-03-26T17:57:17.981Z,79.87
2023-03-26T17:59:46.654Z,80.80
2023-03-26T18:02:21.086Z,81.10
2023-03-26T18:04:53.526Z,82.85
2023-03-26T18:07:44.198Z,85.46
2023-03-26T18:10:41.359Z,83.22
2023-03-26T18:13:31.374Z,82.81
2023-03-26T18:16:14.866Z,81.29
2023-03-26T18:19:19.204Z,81.05
2023-03-26T18:21:50.502Z,79.53
2023-03-26T18:24:27.632Z,80.53
2023-03-26T18:27:08.208Z,79.82
2023-03-26T18:29:37.605Z,82.16
2023-03-26T18:32:10.509Z,80.63
2023-03-26T18:34:46.345Z,80.87
2023-03-26T18:37:23.272Z,80.15
2023-03-26T18:40:19.086Z,80.32
2023-03-26T18:42:52.389Z,81.41
2023-03-26T18:45:39.821Z,82.12
2023-03-26T18:48:13.997Z,80.89
2023-03-26T18:50:42.196Z,80.62
2023-03-26T18:53:17.345Z,80.28
2023-03-26T18:55:44.777Z,79.72
2023-03-26T18:58:33.491Z,79.91
2023-03-26T19:01:04.073Z,79.57
2023-03-26T19:03:35.787Z,78.98
2023-03-26T19:06:08.434Z,78.40
2023-03-26T19:08:38.972Z,82.34
2023-03-26T19:11:08.380Z,80.54
2023-03-26T19:13:38.268Z,80.40
2023-03-26T19:16:17.874Z,81.42
2023-03-26T19:18:45.065Z,80.61
2023-03-26T19:21:14.844Z,80.85
2023-03-26T19:23:42.259Z,80.51
2023-03-26T19:26:11.499Z,80.05
2023-03-26T19:28:42.145Z,78.98
2023-03-26T19:31:26.002Z,79.29
2023-03-26T19:34:26.175Z,78.77
2023-03-26T19:37:01.836Z,79.03
2023-03-26T19:39:42.788Z,79.67
2023-03-26T19:42:26.687Z,80.20
2023-03-26T19:44:54.333Z,79.01
2023-03-26T19:47:35.545Z,78.26
2023-03-26T19:50:28.113Z,77.65
2023-03-26T19:53:17.866Z,78.16
2023-03-26T19:55:59.484Z,77.49
2023-03-26T19:58:27.384Z,77.48
2023-03-26T20:00:56.555Z,77.75
2023-03-26T20:03:46.429Z,77.48
2023-03-26T20:06:16.846Z,77.76
2023-03-26T20:08:44.234Z,77.63
2023-03-26T20:11:21.249Z,77.32
2023-03-26T20:13:49.416Z,78.33
2023-03-26T20:16:27.210Z,78.36
2023-03-26T20:18:57.378Z,77.15
2023-03-26T20:21:25.694Z,75.90
2023-03-26T20:23:56.271Z,75.48
2023-03-26T20:27:33.293Z,76.02
2023-03-26T20:30:00.372Z,76.50
2023-03-26T20:32:27.543Z,77.14
2023-03-26T20:34:55.063Z,77.78
2023-03-26T20:37:22.316Z,77.92
2023-03-26T20:39:49.288Z,77.17
2023-03-26T20:42:16.655Z,77.72
2023-03-26T20:44:43.714Z,77.94
2023-03-26T20:47:11.736Z,78.43
2023-03-26T20:49:39.016Z,78.61
2023-03-26T20:52:06.364Z,78.76
2023-03-26T20:54:33.583Z,79.38
2023-03-26T20:57:00.656Z,79.47
2023-03-26T20:59:28.397Z,79.34
2023-03-26T21:01:58.153Z,79.42
2023-03-26T21:04:26.408Z,79.34
2023-03-26T21:07:00.272Z,77.45
2023-03-26T21:09:34.361Z,79.63
2023-03-26T21:12:57.135Z,79.81
2023-03-26T21:15:47.271Z,79.53
2023-03-26T21:18:14.636Z,78.61
2023-03-26T21:20:44.957Z,79.74
2023-03-26T21:23:32.372Z,79.22
2023-03-26T21:26:12.290Z,78.48
2023-03-26T21:28:48.456Z,79.73
2023-03-26T21:31:22.280Z,77.87
2023-03-26T21:33:50.390Z,75.59
2023-03-26T21:36:20.034Z,74.26
2023-03-26T21:38:47.441Z,73.47
2023-03-26T21:41:46.970Z,72.06
2023-03-26T21:44:18.461Z,71.60
2023-03-26T21:46:47.486Z,70.49
2023-03-26T21:49:17.116Z,67.78
2023-03-26T21:51:45.245Z,65.95
2023-03-26T21:55:08.524Z,66.75
2023-03-26T21:58:25.663Z,69.87
2023-03-26T22:01:32.087Z,72.55
2023-03-26T22:04:21.468Z,72.82
2023-03-26T22:07:14.910Z,72.88
2023-03-26T22:09:43.592Z,73.76
2023-03-26T22:12:11.290Z,75.10
2023-03-26T22:14:38.880Z,75.34
2023-03-26T22:17:06.008Z,75.92
2023-03-26T22:19:34.578Z,76.40
2023-03-26T22:22:02.799Z,76.73
2023-03-26T22:24:29.991Z,76.91
2023-03-26T22:26:57.199Z,76.80
2023-03-26T22:29:24.274Z,80.03
2023-03-26T22:31:51.300Z,80.09
2023-03-26T22:34:18.359Z,78.28
2023-03-26T22:36:45.968Z,76.40
2023-03-26T22:39:13.106Z,75.69
2023-03-26T22:41:40.233Z,78.09
2023-03-26T22:44:19.102Z,77.13
2023-03-26T22:46:49.617Z,77.02
2023-03-26T22:49:17.548Z,75.09
2023-03-26T22:51:44.503Z,78.07
2023-03-26T22:54:11.533Z,77.54
2023-03-26T22:56:38.609Z,77.86
2023-03-26T22:59:05.660Z,76.05
2023-03-26T23:01:33.037Z,73.87
2023-03-26T23:04:00.051Z,71.67
2023-03-26T23:06:27.084Z,71.60
2023-03-26T23:08:54.908Z,71.00
2023-03-26T23:11:24.850Z,68.65
2023-03-26T23:13:51.963Z,71.41
2023-03-26T23:16:20.018Z,71.68
2023-03-26T23:18:47.399Z,71.16
2023-03-26T23:21:19.651Z,71.83
2023-03-26T23:27:37.697Z,72.21
2023-03-26T23:30:05.791Z,72.61
2023-03-26T23:32:33.243Z,71.09
2023-03-26T23:35:00.298Z,71.05
2023-03-26T23:37:29.564Z,70.92
2023-03-26T23:39:56.579Z,70.85
2023-03-26T23:42:55.479Z,70.06
2023-03-26T23:45:22.726Z,69.41
2023-03-26T23:47:49.842Z,69.06
2023-03-26T23:50:16.964Z,70.41
2023-03-26T23:52:45.585Z,69.68
2023-03-26T23:55:12.642Z,69.90
2023-03-26T23:57:40.703Z,69.79
